< < Back
Terminal Aerodrome Forecast


Current Version              Previous Versions:   1  2  3  4  5  6  7  8  9  

Terminal Aerodrome Forecast

278
FTUS42 KJAX 272320
TAFGNV
TAF
KGNV 272320Z 2800/2824 09004KT P6SM VCSH BKN015 OVC050
      TEMPO 2800/2802 SCT015 BKN050
     FM280200 08003KT 5SM BR SCT050 BKN250
     FM280600 00000KT 1SM BR SCT002
      TEMPO 2808/2812 1/2SM FG BKN002
     FM281300 34006KT P6SM VCSH SCT025=



Latest METAR

989
SAUS70 KWBC 280100 RRD
MTRGNV
METAR KGNV 280053Z 00000KT 10SM FEW008 BKN013 OVC023 26/25 A2992 RMK AO2
SLP130 T02610250


USA.gov is the U.S. government's official web portal to all federal, state and local government web resources and services.